Time,TemperatureF,DewpointF,PressureIn,WindDirection,WindDirectionDegrees,WindSpeedMPH,WindSpeedGustMPH,Humidity,HourlyPrecipIn,Conditions,Clouds,dailyrainin,SoftwareType,DateUTC
2013-01-11 00:03:00,39.6,33.7,30.01,ENE,68,0.9,1.3,79,0.00,,,0.00,WUHU216HW,2013-01-11 08:03:00,
2013-01-11 00:08:00,39.6,33.7,30.01,NE,45,0.4,1.3,79,0.00,,,0.00,WUHU216HW,2013-01-11 08:08:00,
2013-01-11 00:13:00,40.0,33.9,30.01,East,90,2.0,2.5,79,0.00,,,0.00,WUHU216HW,2013-01-11 08:13:00,
2013-01-11 00:18:00,39.8,33.9,30.01,East,90,2.5,2.5,79,0.00,,,0.00,WUHU216HW,2013-01-11 08:18:00,
2013-01-11 00:23:00,39.4,33.5,30.01,ENE,68,0.9,2.9,79,0.00,,,0.00,WUHU216HW,2013-01-11 08:23:00,
2013-01-11 00:28:00,39.2,33.3,30.02,ESE,113,0.0,2.9,79,0.00,,,0.00,WUHU216HW,2013-01-11 08:28:00,
2013-01-11 00:33:00,39.1,33.1,30.02,SE,135,1.8,2.5,79,0.00,,,0.00,WUHU216HW,2013-01-11 08:33:00,
2013-01-11 00:38:00,38.5,32.6,30.01,East,90,1.3,2.5,79,0.00,,,0.00,WUHU216HW,2013-01-11 08:38:00,
2013-01-11 00:43:00,38.5,32.9,30.02,East,90,2.7,2.7,80,0.00,,,0.00,WUHU216HW,2013-01-11 08:43:00,
2013-01-11 00:48:00,38.2,32.6,30.01,East,90,3.1,3.1,80,0.00,,,0.00,WUHU216HW,2013-01-11 08:48:00,
2013-01-11 00:53:00,37.8,32.2,30.01,East,90,2.7,3.1,80,0.00,,,0.00,WUHU216HW,2013-01-11 08:53:00,
2013-01-11 00:58:00,37.6,33.0,30.02,East,90,3.1,3.1,83,0.00,,,0.00,WUHU216HW,2013-01-11 08:58:00,
2013-01-11 01:03:00,37.8,33.1,30.02,ENE,68,3.1,3.6,83,0.00,,,0.00,WUHU216HW,2013-01-11 09:03:00,
2013-01-11 01:08:00,38.0,33.3,30.02,ENE,68,3.8,3.8,83,0.00,,,0.00,WUHU216HW,2013-01-11 09:08:00,
2013-01-11 01:13:00,38.2,33.1,30.02,East,90,3.1,4.5,82,0.00,,,0.00,WUHU216HW,2013-01-11 09:13:00,
2013-01-11 01:18:00,38.2,33.1,30.02,ENE,68,2.5,4.5,82,0.00,,,0.00,WUHU216HW,2013-01-11 09:18:00,
2013-01-11 01:23:00,38.2,33.5,30.02,East,90,4.3,4.7,83,0.00,,,0.00,WUHU216HW,2013-01-11 09:23:00,
2013-01-11 01:28:00,38.5,33.5,30.02,NE,45,2.9,4.9,82,0.00,,,0.00,WUHU216HW,2013-01-11 09:28:00,
2013-01-11 01:33:00,38.5,33.5,30.02,ENE,68,1.8,4.9,82,0.00,,,0.00,WUHU216HW,2013-01-11 09:33:00,
2013-01-11 01:38:00,38.7,33.4,30.02,ENE,68,0.4,3.6,81,0.00,,,0.00,WUHU216HW,2013-01-11 09:38:00,
2013-01-11 01:43:00,38.5,33.2,30.02,East,90,0.9,2.5,81,0.00,,,0.00,WUHU216HW,2013-01-11 09:43:00,
2013-01-11 01:48:00,38.5,33.2,30.02,ENE,68,1.6,2.5,81,0.00,,,0.00,WUHU216HW,2013-01-11 09:48:00,
2013-01-11 01:53:00,38.5,33.2,30.02,ENE,68,2.0,2.5,81,0.00,,,0.00,WUHU216HW,2013-01-11 09:53:00,
2013-01-11 01:58:00,38.9,33.3,30.02,ENE,68,1.8,2.5,80,0.00,,,0.00,WUHU216HW,2013-01-11 09:58:00,
2013-01-11 02:03:00,38.9,33.3,30.01,East,90,2.5,2.5,80,0.00,,,0.00,WUHU216HW,2013-01-11 10:03:00,
2013-01-11 02:08:00,38.9,33.3,30.02,ENE,68,2.5,3.4,80,0.00,,,0.00,WUHU216HW,2013-01-11 10:08:00,
2013-01-11 02:13:00,38.7,33.1,30.01,NE,45,2.5,3.6,80,0.00,,,0.00,WUHU216HW,2013-01-11 10:13:00,
2013-01-11 02:18:00,38.5,33.2,30.02,ENE,68,2.5,3.8,81,0.00,,,0.00,WUHU216HW,2013-01-11 10:18:00,
2013-01-11 02:23:00,38.5,33.2,30.02,ENE,68,3.4,3.8,81,0.00,,,0.00,WUHU216HW,2013-01-11 10:23:00,
2013-01-11 02:28:00,38.9,33.6,30.02,NE,45,1.8,3.4,81,0.00,,,0.00,WUHU216HW,2013-01-11 10:28:00,
2013-01-11 02:33:00,38.7,33.1,30.02,ENE,68,2.5,3.8,80,0.00,,,0.00,WUHU216HW,2013-01-11 10:33:00,
2013-01-11 02:38:00,38.5,32.9,30.02,ENE,68,2.7,3.8,80,0.00,,,0.00,WUHU216HW,2013-01-11 10:38:00,
2013-01-11 02:43:00,38.7,33.4,30.02,ENE,68,2.5,3.4,81,0.00,,,0.00,WUHU216HW,2013-01-11 10:43:00,
2013-01-11 02:48:00,38.7,33.1,30.01,ENE,68,4.0,4.0,80,0.00,,,0.00,WUHU216HW,2013-01-11 10:48:00,
2013-01-11 02:53:00,38.7,33.1,30.01,East,90,3.8,4.0,80,0.00,,,0.00,WUHU216HW,2013-01-11 10:53:00,
2013-01-11 02:58:00,38.9,33.3,30.01,ENE,68,4.5,4.5,80,0.00,,,0.00,WUHU216HW,2013-01-11 10:58:00,
2013-01-11 03:03:00,38.5,32.9,30.02,NE,45,1.1,4.5,80,0.00,,,0.00,WUHU216HW,2013-01-11 11:03:00,
2013-01-11 03:08:00,38.3,32.8,30.02,ENE,68,4.3,4.5,80,0.00,,,0.00,WUHU216HW,2013-01-11 11:08:00,
2013-01-11 03:13:00,38.7,33.1,30.02,East,90,3.4,4.5,80,0.00,,,0.00,WUHU216HW,2013-01-11 11:13:00,
2013-01-11 03:18:00,39.1,33.5,30.01,ENE,68,3.6,4.0,80,0.00,,,0.00,WUHU216HW,2013-01-11 11:18:00,
2013-01-11 03:23:00,39.2,33.7,30.02,ENE,68,2.9,3.8,80,0.00,,,0.00,WUHU216HW,2013-01-11 11:23:00,
2013-01-11 03:28:00,39.1,33.1,30.01,ENE,68,3.4,3.8,79,0.00,,,0.00,WUHU216HW,2013-01-11 11:28:00,
2013-01-11 03:33:00,38.7,33.1,30.02,ENE,68,3.8,3.8,80,0.00,,,0.00,WUHU216HW,2013-01-11 11:33:00,
2013-01-11 03:38:00,38.7,33.1,30.01,East,90,3.8,4.3,80,0.00,,,0.00,WUHU216HW,2013-01-11 11:38:00,
2013-01-11 03:43:00,38.5,32.9,30.01,ENE,68,4.7,4.7,80,0.00,,,0.00,WUHU216HW,2013-01-11 11:43:00,
2013-01-11 03:48:00,38.5,32.9,30.01,ENE,68,4.5,5.4,80,0.00,,,0.00,WUHU216HW,2013-01-11 11:48:00,
2013-01-11 03:53:00,38.5,32.9,30.01,ENE,68,3.8,5.4,80,0.00,,,0.00,WUHU216HW,2013-01-11 11:53:00,
2013-01-11 03:58:00,38.9,33.3,30.01,ENE,68,3.1,4.7,80,0.00,,,0.00,WUHU216HW,2013-01-11 11:58:00,
2013-01-11 04:03:00,38.9,33.3,30.01,ENE,68,2.9,4.0,80,0.00,,,0.00,WUHU216HW,2013-01-11 12:03:00,
2013-01-11 04:08:00,38.9,33.3,30.01,ENE,68,2.9,3.1,80,0.00,,,0.00,WUHU216HW,2013-01-11 12:08:00,
2013-01-11 04:13:00,39.1,33.1,30.01,ENE,68,3.4,3.4,79,0.00,,,0.00,WUHU216HW,2013-01-11 12:13:00,
2013-01-11 04:18:00,39.1,33.1,30.01,NE,45,4.5,4.5,79,0.00,,,0.00,WUHU216HW,2013-01-11 12:18:00,
2013-01-11 04:23:00,38.7,32.8,30.01,ENE,68,4.5,5.4,79,0.00,,,0.00,WUHU216HW,2013-01-11 12:23:00,
2013-01-11 04:28:00,38.5,32.9,30.01,ENE,68,3.8,5.4,80,0.00,,,0.00,WUHU216HW,2013-01-11 12:28:00,
2013-01-11 04:33:00,38.7,33.1,30.01,ENE,68,3.1,4.3,80,0.00,,,0.00,WUHU216HW,2013-01-11 12:33:00,
2013-01-11 04:38:00,39.1,33.5,30.01,East,90,2.5,3.8,80,0.00,,,0.00,WUHU216HW,2013-01-11 12:38:00,
2013-01-11 04:43:00,39.2,33.3,30.01,ENE,68,3.4,3.4,79,0.00,,,0.00,WUHU216HW,2013-01-11 12:43:00,
2013-01-11 04:48:00,38.9,32.9,30.01,NE,45,2.9,3.4,79,0.00,,,0.00,WUHU216HW,2013-01-11 12:48:00,
2013-01-11 04:53:00,38.2,32.6,30.01,ENE,68,4.3,5.1,80,0.00,,,0.00,WUHU216HW,2013-01-11 12:53:00,
2013-01-11 04:58:00,38.2,32.6,30.02,NE,45,1.8,5.4,80,0.00,,,0.00,WUHU216HW,2013-01-11 12:58:00,
2013-01-11 05:03:00,37.8,32.2,30.02,NE,45,0.9,5.4,80,0.00,,,0.00,WUHU216HW,2013-01-11 13:03:00,
2013-01-11 05:08:00,37.8,32.2,30.02,ENE,68,4.0,4.0,80,0.00,,,0.00,WUHU216HW,2013-01-11 13:08:00,
2013-01-11 05:13:00,37.4,32.1,30.02,NE,45,3.1,4.3,81,0.00,,,0.00,WUHU216HW,2013-01-11 13:13:00,
2013-01-11 05:18:00,37.4,32.1,30.02,NE,45,2.5,4.7,81,0.00,,,0.00,WUHU216HW,2013-01-11 13:18:00,
2013-01-11 05:23:00,37.6,32.3,30.02,NE,45,2.7,4.7,81,0.00,,,0.00,WUHU216HW,2013-01-11 13:23:00,
2013-01-11 05:28:00,37.8,32.2,30.02,NE,45,2.9,3.1,80,0.00,,,0.00,WUHU216HW,2013-01-11 13:28:00,
2013-01-11 05:33:00,37.8,32.2,30.02,ENE,68,3.1,3.1,80,0.00,,,0.00,WUHU216HW,2013-01-11 13:33:00,
2013-01-11 05:38:00,38.0,32.4,30.02,NE,45,2.0,3.1,80,0.00,,,0.00,WUHU216HW,2013-01-11 13:38:00,
2013-01-11 05:43:00,38.0,32.4,30.03,NE,45,2.7,2.7,80,0.00,,,0.00,WUHU216HW,2013-01-11 13:43:00,
2013-01-11 05:48:00,38.0,32.4,30.03,NE,45,2.9,3.8,80,0.00,,,0.00,WUHU216HW,2013-01-11 13:48:00,
2013-01-11 05:53:00,37.8,32.2,30.03,NE,45,2.9,3.8,80,0.00,,,0.00,WUHU216HW,2013-01-11 13:53:00,
2013-01-11 05:58:00,37.8,32.2,30.03,NE,45,2.5,3.4,80,0.00,,,0.00,WUHU216HW,2013-01-11 13:58:00,
2013-01-11 06:03:00,37.8,32.2,30.03,NE,45,3.1,3.4,80,0.00,,,0.00,WUHU216HW,2013-01-11 14:03:00,
2013-01-11 06:08:00,37.8,32.2,30.03,ENE,68,2.9,3.6,80,0.00,,,0.00,WUHU216HW,2013-01-11 14:08:00,
2013-01-11 06:13:00,38.0,32.4,30.04,ENE,68,2.2,3.8,80,0.00,,,0.00,WUHU216HW,2013-01-11 14:13:00,
2013-01-11 06:18:00,38.2,32.6,30.04,ENE,68,3.4,3.8,80,0.00,,,0.00,WUHU216HW,2013-01-11 14:18:00,
2013-01-11 06:23:00,38.0,32.4,30.04,ENE,68,3.8,3.8,80,0.00,,,0.00,WUHU216HW,2013-01-11 14:23:00,
2013-01-11 06:28:00,38.3,32.8,30.04,NE,45,2.5,3.8,80,0.00,,,0.00,WUHU216HW,2013-01-11 14:28:00,
2013-01-11 06:33:00,38.3,32.8,30.05,NE,45,2.5,3.4,80,0.00,,,0.00,WUHU216HW,2013-01-11 14:33:00,
2013-01-11 06:38:00,38.2,32.6,30.05,NE,45,2.2,3.4,80,0.00,,,0.00,WUHU216HW,2013-01-11 14:38:00,
2013-01-11 06:43:00,38.3,32.4,30.05,NE,45,3.1,3.1,79,0.00,,,0.00,WUHU216HW,2013-01-11 14:43:00,
2013-01-11 06:48:00,38.2,32.2,30.05,NE,45,1.6,3.6,79,0.00,,,0.00,WUHU216HW,2013-01-11 14:48:00,
2013-01-11 06:53:00,38.3,32.4,30.05,ENE,68,1.8,3.6,79,0.00,,,0.00,WUHU216HW,2013-01-11 14:53:00,
2013-01-11 06:58:00,38.5,32.6,30.05,NE,45,3.1,3.4,79,0.00,,,0.00,WUHU216HW,2013-01-11 14:58:00,
2013-01-11 07:03:00,38.3,32.4,30.05,NE,45,3.1,3.4,79,0.00,,,0.00,WUHU216HW,2013-01-11 15:03:00,
2013-01-11 07:08:00,38.3,32.4,30.05,ENE,68,3.1,3.4,79,0.00,,,0.00,WUHU216HW,2013-01-11 15:08:00,
2013-01-11 07:13:00,38.9,32.9,30.05,NE,45,1.1,3.1,79,0.00,,,0.00,WUHU216HW,2013-01-11 15:13:00,
2013-01-11 07:18:00,39.2,33.3,30.05,NE,45,0.0,3.1,79,0.00,,,0.00,WUHU216HW,2013-01-11 15:18:00,
2013-01-11 07:23:00,39.6,33.7,30.06,ENE,68,1.3,1.3,79,0.00,,,0.00,WUHU216HW,2013-01-11 15:23:00,
2013-01-11 07:28:00,39.1,33.1,30.06,ENE,68,3.4,3.4,79,0.00,,,0.00,WUHU216HW,2013-01-11 15:28:00,
2013-01-11 07:33:00,38.5,32.6,30.06,NE,45,2.2,3.4,79,0.00,,,0.00,WUHU216HW,2013-01-11 15:33:00,
2013-01-11 07:38:00,38.5,32.6,30.06,ENE,68,3.4,3.4,79,0.00,,,0.00,WUHU216HW,2013-01-11 15:38:00,
2013-01-11 07:43:00,38.5,32.6,30.06,NE,45,3.4,3.4,79,0.00,,,0.00,WUHU216HW,2013-01-11 15:43:00,
2013-01-11 07:48:00,38.7,32.8,30.06,NE,45,2.7,3.4,79,0.00,,,0.00,WUHU216HW,2013-01-11 15:48:00,
2013-01-11 07:53:00,39.1,33.1,30.06,NE,45,1.8,3.4,79,0.00,,,0.00,WUHU216HW,2013-01-11 15:53:00,
2013-01-11 07:58:00,39.2,33.3,30.06,ENE,68,2.5,2.5,79,0.00,,,0.00,WUHU216HW,2013-01-11 15:58:00,
2013-01-11 08:03:00,39.6,33.3,30.06,NE,45,3.6,4.0,78,0.00,,,0.00,WUHU216HW,2013-01-11 16:03:00,
2013-01-11 08:08:00,39.8,33.5,30.06,ENE,68,1.3,4.0,78,0.00,,,0.00,WUHU216HW,2013-01-11 16:08:00,
2013-01-11 08:13:00,39.8,33.5,30.06,ENE,68,2.9,3.6,78,0.00,,,0.00,WUHU216HW,2013-01-11 16:13:00,
2013-01-11 08:18:00,39.6,33.3,30.06,ENE,68,3.6,4.0,78,0.00,,,0.00,WUHU216HW,2013-01-11 16:18:00,
2013-01-11 08:23:00,39.6,33.3,30.06,East,90,3.4,4.0,78,0.00,,,0.00,WUHU216HW,2013-01-11 16:23:00,
2013-01-11 08:28:00,39.8,33.9,30.06,ENE,68,3.1,4.0,79,0.00,,,0.00,WUHU216HW,2013-01-11 16:28:00,
2013-01-11 08:33:00,40.1,33.9,30.07,ENE,68,1.8,3.4,78,0.00,,,0.00,WUHU216HW,2013-01-11 16:33:00,
2013-01-11 08:38:00,40.5,34.1,30.07,SE,135,1.6,3.4,78,0.00,,,0.00,WUHU216HW,2013-01-11 16:38:00,
2013-01-11 08:43:00,41.0,34.9,30.07,East,90,1.8,3.1,79,0.00,,,0.00,WUHU216HW,2013-01-11 16:43:00,
2013-01-11 08:48:00,41.4,35.0,30.07,East,90,1.1,1.8,78,0.00,,,0.00,WUHU216HW,2013-01-11 16:48:00,
2013-01-11 08:53:00,41.9,35.6,30.08,ENE,68,0.9,1.8,78,0.00,,,0.00,WUHU216HW,2013-01-11 16:53:00,
2013-01-11 08:58:00,42.5,35.7,30.08,East,90,1.8,2.0,77,0.00,,,0.00,WUHU216HW,2013-01-11 16:58:00,
2013-01-11 09:03:00,42.7,35.9,30.08,East,90,1.3,2.5,77,0.00,,,0.00,WUHU216HW,2013-01-11 17:03:00,
2013-01-11 09:08:00,43.2,36.5,30.08,East,90,1.1,3.6,77,0.00,,,0.00,WUHU216HW,2013-01-11 17:08:00,
2013-01-11 09:13:00,43.6,36.8,30.08,East,90,1.3,3.6,77,0.00,,,0.00,WUHU216HW,2013-01-11 17:13:00,
2013-01-11 09:18:00,44.1,37.4,30.08,ESE,113,1.1,2.5,77,0.00,,,0.00,WUHU216HW,2013-01-11 17:18:00,
2013-01-11 09:23:00,44.6,37.2,30.08,SSE,158,1.6,2.0,75,0.00,,,0.00,WUHU216HW,2013-01-11 17:23:00,
2013-01-11 09:28:00,45.4,37.9,30.08,SSE,158,2.2,3.4,75,0.00,,,0.00,WUHU216HW,2013-01-11 17:28:00,
2013-01-11 09:33:00,46.1,38.6,30.08,ESE,113,1.3,3.4,75,0.00,,,0.00,WUHU216HW,2013-01-11 17:33:00,
2013-01-11 09:38:00,46.4,38.3,30.08,ESE,113,2.7,3.6,73,0.00,,,0.00,WUHU216HW,2013-01-11 17:38:00,
2013-01-11 09:43:00,46.8,38.6,30.08,SSE,158,2.5,3.6,73,0.00,,,0.00,WUHU216HW,2013-01-11 17:43:00,
2013-01-11 09:48:00,47.2,39.2,30.08,SE,135,4.3,4.5,74,0.00,,,0.00,WUHU216HW,2013-01-11 17:48:00,
2013-01-11 09:53:00,47.7,39.1,30.08,SE,135,5.4,5.4,72,0.00,,,0.00,WUHU216HW,2013-01-11 17:53:00,
2013-01-11 09:58:00,47.9,38.5,30.08,East,90,3.4,5.4,70,0.00,,,0.00,WUHU216HW,2013-01-11 17:58:00,
2013-01-11 10:04:00,48.1,39.1,30.07,SSE,158,3.4,4.7,71,0.00,,,0.00,WUHU216HW,2013-01-11 18:04:00,
2013-01-11 10:09:00,48.6,38.9,30.08,SE,135,3.6,4.0,69,0.00,,,0.00,WUHU216HW,2013-01-11 18:09:00,
2013-01-11 10:14:00,49.0,39.3,30.07,SE,135,1.8,4.0,69,0.00,,,0.00,WUHU216HW,2013-01-11 18:14:00,
2013-01-11 10:19:00,49.1,39.0,30.07,ESE,113,1.1,3.1,68,0.00,,,0.00,WUHU216HW,2013-01-11 18:19:00,
2013-01-11 10:24:00,49.7,39.2,30.07,SSE,158,3.1,4.7,67,0.00,,,0.00,WUHU216HW,2013-01-11 18:24:00,
2013-01-11 10:29:00,50.0,39.5,30.07,South,180,3.1,4.7,67,0.00,,,0.00,WUHU216HW,2013-01-11 18:29:00,
2013-01-11 10:34:00,50.4,39.9,30.07,SW,225,1.1,3.1,67,0.00,,,0.00,WUHU216HW,2013-01-11 18:34:00,
2013-01-11 10:39:00,50.9,40.3,30.07,SSE,158,3.6,3.6,67,0.00,,,0.00,WUHU216HW,2013-01-11 18:39:00,
2013-01-11 10:44:00,50.9,40.0,30.07,South,180,3.4,3.6,66,0.00,,,0.00,WUHU216HW,2013-01-11 18:44:00,
2013-01-11 10:49:00,51.1,40.2,30.07,SSE,158,2.0,3.4,66,0.00,,,0.00,WUHU216HW,2013-01-11 18:49:00,
2013-01-11 10:54:00,51.3,39.5,30.07,ESE,113,1.1,3.1,64,0.00,,,0.00,WUHU216HW,2013-01-11 18:54:00,
2013-01-11 10:59:00,51.5,40.1,30.06,SSE,158,1.8,2.5,65,0.00,,,0.00,WUHU216HW,2013-01-11 18:59:00,
2013-01-11 11:04:00,52.2,40.8,30.06,SSW,203,0.4,2.5,65,0.00,,,0.00,WUHU216HW,2013-01-11 19:04:00,
2013-01-11 11:09:00,52.2,39.5,30.06,WNW,293,1.3,2.5,62,0.00,,,0.00,WUHU216HW,2013-01-11 19:09:00,
2013-01-11 11:14:00,51.7,38.6,30.05,NNW,338,0.0,2.9,61,0.00,,,0.00,WUHU216HW,2013-01-11 19:14:00,
2013-01-11 11:19:00,52.0,39.8,30.05,West,270,0.7,2.9,63,0.00,,,0.00,WUHU216HW,2013-01-11 19:19:00,
2013-01-11 11:24:00,52.4,38.4,30.05,SSE,158,2.0,4.9,59,0.00,,,0.00,WUHU216HW,2013-01-11 19:24:00,
2013-01-11 11:29:00,52.9,40.2,30.05,SSW,203,2.9,4.9,62,0.00,,,0.00,WUHU216HW,2013-01-11 19:29:00,
2013-01-11 11:34:00,54.0,40.9,30.05,West,270,2.9,2.9,61,0.00,,,0.00,WUHU216HW,2013-01-11 19:34:00,
2013-01-11 11:39:00,54.5,41.0,30.05,WNW,293,2.5,3.4,60,0.00,,,0.00,WUHU216HW,2013-01-11 19:39:00,
2013-01-11 11:44:00,54.5,40.5,30.04,NNW,338,0.7,3.4,59,0.00,,,0.00,WUHU216HW,2013-01-11 19:44:00,
2013-01-11 11:49:00,54.7,39.7,30.04,West,270,1.6,4.9,57,0.00,,,0.00,WUHU216HW,2013-01-11 19:49:00,
2013-01-11 11:54:00,55.4,41.8,30.03,SW,225,0.9,4.9,60,0.00,,,0.00,WUHU216HW,2013-01-11 19:54:00,
2013-01-11 11:59:00,56.2,42.0,30.03,NNE,23,0.0,2.2,59,0.00,,,0.00,WUHU216HW,2013-01-11 19:59:00,
2013-01-11 12:04:00,57.2,43.1,30.03,SSE,158,1.1,2.2,59,0.00,,,0.00,WUHU216HW,2013-01-11 20:04:00,
2013-01-11 12:09:00,57.4,42.8,30.03,SSW,203,3.4,3.4,58,0.00,,,0.00,WUHU216HW,2013-01-11 20:09:00,
2013-01-11 12:14:00,58.3,44.1,30.02,SSW,203,1.1,3.8,59,0.00,,,0.00,WUHU216HW,2013-01-11 20:14:00,
2013-01-11 12:19:00,58.9,44.1,30.02,WSW,248,1.8,3.8,58,0.00,,,0.00,WUHU216HW,2013-01-11 20:19:00,
2013-01-11 12:24:00,58.9,43.7,30.02,SSW,203,1.6,4.7,57,0.00,,,0.00,WUHU216HW,2013-01-11 20:24:00,
2013-01-11 12:29:00,59.0,43.3,30.02,SSW,203,2.5,4.7,56,0.00,,,0.00,WUHU216HW,2013-01-11 20:29:00,
2013-01-11 12:34:00,59.4,43.2,30.01,SSE,158,2.7,3.8,55,0.00,,,0.00,WUHU216HW,2013-01-11 20:34:00,
2013-01-11 12:39:00,59.8,43.6,30.01,SSW,203,1.8,3.8,55,0.00,,,0.00,WUHU216HW,2013-01-11 20:39:00,
2013-01-11 12:44:00,59.4,40.9,30.01,NW,315,3.1,5.8,50,0.00,,,0.00,WUHU216HW,2013-01-11 20:44:00,
2013-01-11 12:49:00,58.9,41.8,30.00,WNW,293,1.3,5.8,53,0.00,,,0.00,WUHU216HW,2013-01-11 20:49:00,
2013-01-11 12:54:00,58.7,41.6,30.00,WNW,293,4.3,4.3,53,0.00,,,0.00,WUHU216HW,2013-01-11 20:54:00,
2013-01-11 12:59:00,58.3,41.2,30.00,West,270,2.5,4.3,53,0.00,,,0.00,WUHU216HW,2013-01-11 20:59:00,
2013-01-11 13:04:00,59.0,42.8,30.00,SSW,203,1.1,4.3,55,0.00,,,0.00,WUHU216HW,2013-01-11 21:04:00,
2013-01-11 13:09:00,59.9,43.2,30.00,NW,315,2.0,3.8,54,0.00,,,0.00,WUHU216HW,2013-01-11 21:09:00,
2013-01-11 13:14:00,60.3,43.6,30.00,SSE,158,0.4,3.8,54,0.00,,,0.00,WUHU216HW,2013-01-11 21:14:00,
2013-01-11 13:19:00,60.5,43.8,30.00,SSW,203,0.2,3.4,54,0.00,,,0.00,WUHU216HW,2013-01-11 21:19:00,
2013-01-11 13:24:00,60.5,43.2,30.00,WSW,248,4.9,4.9,53,0.00,,,0.00,WUHU216HW,2013-01-11 21:24:00,
2013-01-11 13:29:00,60.8,43.6,29.99,SW,225,4.9,4.9,53,0.00,,,0.00,WUHU216HW,2013-01-11 21:29:00,
2013-01-11 13:34:00,60.8,43.1,29.99,West,270,3.6,4.9,52,0.00,,,0.00,WUHU216HW,2013-01-11 21:34:00,
2013-01-11 13:39:00,59.9,40.1,30.00,WNW,293,4.5,5.6,48,0.00,,,0.00,WUHU216HW,2013-01-11 21:39:00,
2013-01-11 13:44:00,59.0,41.0,29.99,WNW,293,7.2,7.2,51,0.00,,,0.00,WUHU216HW,2013-01-11 21:44:00,
2013-01-11 13:49:00,58.1,40.1,29.99,WNW,293,7.2,7.6,51,0.00,,,0.00,WUHU216HW,2013-01-11 21:49:00,
2013-01-11 13:54:00,57.6,40.6,29.99,WNW,293,5.6,7.6,53,0.00,,,0.00,WUHU216HW,2013-01-11 21:54:00,
2013-01-11 13:59:00,56.9,40.4,29.99,West,270,6.3,6.5,54,0.00,,,0.00,WUHU216HW,2013-01-11 21:59:00,
2013-01-11 14:04:00,56.5,40.5,29.99,WNW,293,5.4,6.5,55,0.00,,,0.00,WUHU216HW,2013-01-11 22:04:00,
2013-01-11 14:09:00,56.7,41.1,29.99,WSW,248,6.3,6.3,56,0.00,,,0.00,WUHU216HW,2013-01-11 22:09:00,
2013-01-11 14:14:00,56.7,40.7,29.99,WNW,293,1.1,7.4,55,0.00,,,0.00,WUHU216HW,2013-01-11 22:14:00,
2013-01-11 14:19:00,56.3,40.8,29.99,SSW,203,4.5,7.4,56,0.00,,,0.00,WUHU216HW,2013-01-11 22:19:00,
2013-01-11 14:24:00,55.8,40.7,29.98,WSW,248,2.5,6.3,57,0.00,,,0.00,WUHU216HW,2013-01-11 22:24:00,
2013-01-11 14:29:00,55.6,41.1,29.99,WSW,248,6.5,7.6,58,0.00,,,0.00,WUHU216HW,2013-01-11 22:29:00,
2013-01-11 14:34:00,55.4,41.3,29.98,WSW,248,2.2,7.6,59,0.00,,,0.00,WUHU216HW,2013-01-11 22:34:00,
2013-01-11 14:39:00,55.8,41.7,29.98,West,270,7.2,7.2,59,0.00,,,0.00,WUHU216HW,2013-01-11 22:39:00,
2013-01-11 14:44:00,55.8,41.7,29.98,WNW,293,6.9,8.9,59,0.00,,,0.00,WUHU216HW,2013-01-11 22:44:00,
2013-01-11 14:49:00,55.3,41.6,29.98,WNW,293,5.6,8.9,60,0.00,,,0.00,WUHU216HW,2013-01-11 22:49:00,
2013-01-11 14:54:00,54.9,40.8,29.98,WSW,248,6.9,10.7,59,0.00,,,0.00,WUHU216HW,2013-01-11 22:54:00,
2013-01-11 14:59:00,54.2,40.6,29.97,WNW,293,6.5,10.7,60,0.00,,,0.00,WUHU216HW,2013-01-11 22:59:00,
2013-01-11 15:04:00,53.6,41.3,29.97,West,270,8.9,10.1,63,0.00,,,0.00,WUHU216HW,2013-01-11 23:04:00,
2013-01-11 15:09:00,53.3,41.8,29.97,West,270,6.3,9.8,65,0.00,,,0.00,WUHU216HW,2013-01-11 23:09:00,
2013-01-11 15:14:00,53.1,42.0,29.97,West,270,7.6,9.6,66,0.00,,,0.00,WUHU216HW,2013-01-11 23:14:00,
2013-01-11 15:19:00,52.9,41.9,29.97,WNW,293,12.1,13.2,66,0.00,,,0.00,WUHU216HW,2013-01-11 23:19:00,
2013-01-11 15:24:00,52.7,42.1,29.97,WNW,293,15.9,15.9,67,0.00,,,0.00,WUHU216HW,2013-01-11 23:24:00,
2013-01-11 15:29:00,52.6,42.0,29.97,WNW,293,11.4,19.7,67,0.00,,,0.00,WUHU216HW,2013-01-11 23:29:00,
2013-01-11 15:34:00,52.0,42.2,29.97,West,270,13.9,19.7,69,0.00,,,0.00,WUHU216HW,2013-01-11 23:34:00,
2013-01-11 15:39:00,51.7,41.5,29.97,West,270,15.7,18.3,68,0.00,,,0.00,WUHU216HW,2013-01-11 23:39:00,
2013-01-11 15:44:00,51.8,42.0,29.97,WNW,293,11.4,18.6,69,0.00,,,0.00,WUHU216HW,2013-01-11 23:44:00,
2013-01-11 15:49:00,52.0,43.0,29.97,West,270,15.2,18.6,71,0.00,,,0.00,WUHU216HW,2013-01-11 23:49:00,
2013-01-11 15:54:00,51.8,42.5,29.97,WNW,293,12.1,15.2,70,0.00,,,0.00,WUHU216HW,2013-01-11 23:54:00,
2013-01-11 15:59:00,51.5,42.5,29.97,WNW,293,12.3,17.2,71,0.00,,,0.00,WUHU216HW,2013-01-11 23:59:00,
2013-01-11 16:04:00,51.5,42.9,29.96,West,270,13.9,17.2,72,0.00,,,0.00,WUHU216HW,2013-01-12 00:04:00,
2013-01-11 16:09:00,51.1,42.5,29.97,WNW,293,15.9,19.2,72,0.00,,,0.00,WUHU216HW,2013-01-12 00:09:00,
2013-01-11 16:14:00,50.8,42.4,29.97,West,270,13.4,19.2,73,0.00,,,0.00,WUHU216HW,2013-01-12 00:14:00,
2013-01-11 16:19:00,50.4,42.4,29.96,West,270,15.0,18.6,74,0.00,,,0.00,WUHU216HW,2013-01-12 00:19:00,
2013-01-11 16:24:00,50.2,42.2,29.96,WNW,293,12.5,17.9,74,0.00,,,0.00,WUHU216HW,2013-01-12 00:24:00,
2013-01-11 16:29:00,50.2,42.6,29.96,NW,315,12.8,17.9,75,0.00,,,0.00,WUHU216HW,2013-01-12 00:29:00,
2013-01-11 16:34:00,50.0,42.4,29.96,West,270,13.4,15.4,75,0.00,,,0.00,WUHU216HW,2013-01-12 00:34:00,
2013-01-11 16:39:00,50.0,42.8,29.96,WNW,293,13.9,15.4,76,0.00,,,0.00,WUHU216HW,2013-01-12 00:39:00,
2013-01-11 16:44:00,50.0,42.8,29.96,WNW,293,11.4,14.1,76,0.00,,,0.00,WUHU216HW,2013-01-12 00:44:00,
2013-01-11 16:49:00,50.0,42.8,29.96,WNW,293,12.1,13.0,76,0.00,,,0.00,WUHU216HW,2013-01-12 00:49:00,
2013-01-11 16:54:00,50.0,43.1,29.96,West,270,12.3,13.0,77,0.00,,,0.00,WUHU216HW,2013-01-12 00:54:00,
2013-01-11 16:59:00,49.9,42.6,29.95,West,270,4.9,12.3,76,0.00,,,0.00,WUHU216HW,2013-01-12 00:59:00,
2013-01-11 17:04:00,49.7,42.4,29.95,WNW,293,10.5,11.4,76,0.00,,,0.00,WUHU216HW,2013-01-12 01:04:00,
2013-01-11 17:09:00,49.5,41.9,29.95,NW,315,9.8,12.8,75,0.00,,,0.00,WUHU216HW,2013-01-12 01:09:00,
2013-01-11 17:14:00,49.3,41.7,29.95,WNW,293,8.1,12.8,75,0.00,,,0.00,WUHU216HW,2013-01-12 01:14:00,
2013-01-11 17:19:00,49.0,41.7,29.95,NW,315,8.3,10.5,76,0.00,,,0.00,WUHU216HW,2013-01-12 01:19:00,
2013-01-11 17:24:00,48.8,41.5,29.95,West,270,9.8,11.0,76,0.00,,,0.00,WUHU216HW,2013-01-12 01:24:00,
2013-01-11 17:29:00,48.6,41.7,29.95,NW,315,6.9,12.5,77,0.00,,,0.00,WUHU216HW,2013-01-12 01:29:00,
2013-01-11 17:34:00,48.6,41.9,29.95,West,270,9.2,12.5,78,0.00,,,0.00,WUHU216HW,2013-01-12 01:34:00,
2013-01-11 17:39:00,48.4,41.8,29.95,WNW,293,11.2,13.0,78,0.00,,,0.00,WUHU216HW,2013-01-12 01:39:00,
2013-01-11 17:44:00,48.2,41.6,29.95,WNW,293,10.1,13.0,78,0.00,,,0.00,WUHU216HW,2013-01-12 01:44:00,
2013-01-11 17:49:00,48.2,41.6,29.95,WNW,293,10.5,10.5,78,0.00,,,0.00,WUHU216HW,2013-01-12 01:49:00,
2013-01-11 17:54:00,48.2,41.6,29.95,NW,315,9.4,11.4,78,0.00,,,0.00,WUHU216HW,2013-01-12 01:54:00,
2013-01-11 17:59:00,48.2,41.0,29.95,WNW,293,8.7,11.4,76,0.00,,,0.00,WUHU216HW,2013-01-12 01:59:00,
2013-01-11 18:04:00,48.1,40.8,29.95,WNW,293,7.6,11.2,76,0.00,,,0.00,WUHU216HW,2013-01-12 02:04:00,
2013-01-11 18:09:00,48.1,40.8,29.95,WNW,293,8.5,11.0,76,0.00,,,0.00,WUHU216HW,2013-01-12 02:09:00,
2013-01-11 18:14:00,47.9,40.6,29.95,WNW,293,8.5,11.0,76,0.00,,,0.00,WUHU216HW,2013-01-12 02:14:00,
2013-01-11 18:19:00,47.9,40.6,29.95,WNW,293,6.9,9.8,76,0.00,,,0.00,WUHU216HW,2013-01-12 02:19:00,
2013-01-11 18:24:00,47.7,40.4,29.95,WNW,293,7.8,9.8,76,0.00,,,0.00,WUHU216HW,2013-01-12 02:24:00,
2013-01-11 18:29:00,47.7,40.4,29.95,West,270,8.7,10.1,76,0.00,,,0.00,WUHU216HW,2013-01-12 02:29:00,
2013-01-11 18:34:00,47.5,40.3,29.95,NW,315,6.7,10.1,76,0.00,,,0.00,WUHU216HW,2013-01-12 02:34:00,
2013-01-11 18:39:00,47.3,40.2,29.95,WNW,293,4.7,7.8,76,0.00,,,0.00,WUHU216HW,2013-01-12 02:39:00,
2013-01-11 18:44:00,47.2,40.3,29.95,WNW,293,4.0,6.3,77,0.00,,,0.00,WUHU216HW,2013-01-12 02:44:00,
2013-01-11 18:49:00,47.2,40.3,29.95,NW,315,5.1,6.3,77,0.00,,,0.00,WUHU216HW,2013-01-12 02:49:00,
2013-01-11 18:54:00,46.8,40.3,29.95,WNW,293,3.8,5.6,78,0.00,,,0.00,WUHU216HW,2013-01-12 02:54:00,
2013-01-11 18:59:00,46.8,40.3,29.95,WNW,293,6.3,6.3,78,0.00,,,0.00,WUHU216HW,2013-01-12 02:59:00,
2013-01-11 19:04:00,46.6,39.8,29.95,WNW,293,2.5,6.3,77,0.00,,,0.00,WUHU216HW,2013-01-12 03:04:00,
2013-01-11 19:09:00,46.6,39.8,29.95,WNW,293,4.9,6.3,77,0.00,,,0.00,WUHU216HW,2013-01-12 03:09:00,
2013-01-11 19:14:00,46.4,39.7,29.95,NW,315,2.0,4.9,77,0.00,,,0.00,WUHU216HW,2013-01-12 03:14:00,
2013-01-11 19:19:00,46.4,39.7,29.95,WNW,293,1.6,3.6,77,0.00,,,0.00,WUHU216HW,2013-01-12 03:19:00,
2013-01-11 19:24:00,46.3,39.5,29.95,West,270,3.4,4.7,77,0.00,,,0.00,WUHU216HW,2013-01-12 03:24:00,
2013-01-11 19:29:00,46.3,39.5,29.95,West,270,2.7,5.4,77,0.00,,,0.00,WUHU216HW,2013-01-12 03:29:00,
2013-01-11 19:34:00,46.3,39.5,29.95,WNW,293,1.8,5.4,77,0.00,,,0.00,WUHU216HW,2013-01-12 03:34:00,
2013-01-11 19:39:00,46.3,39.8,29.95,North,0,0.4,4.3,78,0.00,,,0.00,WUHU216HW,2013-01-12 03:39:00,
2013-01-11 19:44:00,46.1,39.6,29.95,NNW,338,0.0,0.4,78,0.00,,,0.00,WUHU216HW,2013-01-12 03:44:00,
2013-01-11 19:49:00,46.1,39.6,29.95,WNW,293,0.0,0.4,78,0.00,,,0.00,WUHU216HW,2013-01-12 03:49:00,
2013-01-11 19:54:00,45.9,39.4,29.95,NNW,338,0.2,1.1,78,0.00,,,0.00,WUHU216HW,2013-01-12 03:54:00,
2013-01-11 19:59:00,45.9,39.4,29.95,NW,315,0.0,1.1,78,0.00,,,0.00,WUHU216HW,2013-01-12 03:59:00,
2013-01-11 20:04:00,45.9,39.2,29.95,WNW,293,2.2,2.9,77,0.00,,,0.00,WUHU216HW,2013-01-12 04:04:00,
2013-01-11 20:09:00,45.9,39.2,29.95,WNW,293,1.8,2.9,77,0.00,,,0.00,WUHU216HW,2013-01-12 04:09:00,
2013-01-11 20:14:00,46.1,39.3,29.95,West,270,2.7,2.9,77,0.00,,,0.00,WUHU216HW,2013-01-12 04:14:00,
2013-01-11 20:19:00,46.1,39.3,29.95,NW,315,1.6,3.6,77,0.00,,,0.00,WUHU216HW,2013-01-12 04:19:00,
2013-01-11 20:24:00,46.1,39.6,29.95,NW,315,0.0,3.6,78,0.00,,,0.00,WUHU216HW,2013-01-12 04:24:00,
2013-01-11 20:29:00,46.1,39.6,29.95,NW,315,0.0,1.3,78,0.00,,,0.00,WUHU216HW,2013-01-12 04:29:00,
2013-01-11 20:34:00,46.1,39.6,29.95,NW,315,0.0,0.4,78,0.00,,,0.00,WUHU216HW,2013-01-12 04:34:00,
2013-01-11 20:39:00,46.1,39.3,29.95,NNW,338,0.4,0.4,77,0.00,,,0.00,WUHU216HW,2013-01-12 04:39:00,
2013-01-11 20:44:00,45.7,39.0,29.95,NW,315,0.4,0.4,77,0.00,,,0.00,WUHU216HW,2013-01-12 04:44:00,
2013-01-11 20:49:00,45.7,39.0,29.95,NW,315,0.0,0.4,77,0.00,,,0.00,WUHU216HW,2013-01-12 04:49:00,
2013-01-11 20:54:00,45.4,38.3,29.95,NNW,338,0.4,0.4,76,0.00,,,0.00,WUHU216HW,2013-01-12 04:54:00,
2013-01-11 20:59:00,45.4,38.6,29.95,NNW,338,0.2,0.4,77,0.00,,,0.00,WUHU216HW,2013-01-12 04:59:00,
2013-01-11 21:01:00,45.4,38.6,29.95,NNW,338,0.2,0.4,77,0.00,,,0.00,WUHU216HW,2013-01-12 05:01:00,
2013-01-11 21:03:00,45.2,38.4,29.95,NNW,338,0.0,0.4,77,0.00,,,0.00,WUHU216HW,2013-01-12 05:03:00,
2013-01-11 21:08:00,45.2,38.4,29.95,NNW,338,0.0,0.4,77,0.00,,,0.00,WUHU216HW,2013-01-12 05:08:00,
2013-01-11 21:13:00,45.2,38.4,29.96,NNW,338,0.0,0.0,77,0.00,,,0.00,WUHU216HW,2013-01-12 05:13:00,
2013-01-11 21:18:00,45.0,38.3,29.95,NNW,338,0.2,0.2,77,0.00,,,0.00,WUHU216HW,2013-01-12 05:18:00,
2013-01-11 21:23:00,45.0,38.3,29.96,NNW,338,0.0,0.2,77,0.00,,,0.00,WUHU216HW,2013-01-12 05:23:00,
2013-01-11 21:28:00,45.0,38.3,29.96,NNW,338,0.0,0.0,77,0.00,,,0.00,WUHU216HW,2013-01-12 05:28:00,
2013-01-11 21:33:00,45.0,38.3,29.96,NNW,338,0.0,0.0,77,0.00,,,0.00,WUHU216HW,2013-01-12 05:33:00,
2013-01-11 21:38:00,45.0,38.3,29.96,NNW,338,0.0,0.0,77,0.00,,,0.00,WUHU216HW,2013-01-12 05:38:00,
2013-01-11 21:43:00,45.0,38.3,29.96,WNW,293,0.4,0.4,77,0.00,,,0.00,WUHU216HW,2013-01-12 05:43:00,
2013-01-11 21:48:00,45.0,38.5,29.96,WNW,293,0.0,0.4,78,0.00,,,0.00,WUHU216HW,2013-01-12 05:48:00,
2013-01-11 21:53:00,45.2,38.7,29.96,WNW,293,0.0,0.0,78,0.00,,,0.00,WUHU216HW,2013-01-12 05:53:00,
2013-01-11 21:58:00,45.2,38.7,29.96,NNE,23,0.4,0.9,78,0.00,,,0.00,WUHU216HW,2013-01-12 05:58:00,
2013-01-11 22:03:00,45.0,38.5,29.96,NNE,23,0.9,0.9,78,0.00,,,0.00,WUHU216HW,2013-01-12 06:03:00,
2013-01-11 22:08:00,45.0,38.5,29.96,ENE,68,1.3,2.0,78,0.00,,,0.00,WUHU216HW,2013-01-12 06:08:00,
2013-01-11 22:13:00,44.6,38.2,29.96,NE,45,1.1,2.0,78,0.00,,,0.00,WUHU216HW,2013-01-12 06:13:00,
2013-01-11 22:18:00,44.6,38.2,29.96,NNE,23,0.2,1.8,78,0.00,,,0.00,WUHU216HW,2013-01-12 06:18:00,
2013-01-11 22:23:00,44.5,38.0,29.96,NNE,23,0.0,1.3,78,0.00,,,0.00,WUHU216HW,2013-01-12 06:23:00,
2013-01-11 22:28:00,44.3,37.8,29.96,NE,45,1.3,1.3,78,0.00,,,0.00,WUHU216HW,2013-01-12 06:28:00,
2013-01-11 22:33:00,44.5,38.0,29.96,ENE,68,1.1,2.0,78,0.00,,,0.00,WUHU216HW,2013-01-12 06:33:00,
2013-01-11 22:38:00,44.3,37.8,29.96,East,90,0.0,2.0,78,0.00,,,0.00,WUHU216HW,2013-01-12 06:38:00,
2013-01-11 22:43:00,44.3,37.8,29.96,East,90,0.0,1.3,78,0.00,,,0.00,WUHU216HW,2013-01-12 06:43:00,
2013-01-11 22:48:00,43.9,37.5,29.96,ENE,68,0.0,0.4,78,0.00,,,0.00,WUHU216HW,2013-01-12 06:48:00,
2013-01-11 22:53:00,43.7,37.4,29.96,ENE,68,0.0,0.4,78,0.00,,,0.00,WUHU216HW,2013-01-12 06:53:00,
2013-01-11 22:58:00,43.6,37.4,29.96,East,90,0.4,0.4,79,0.00,,,0.00,WUHU216HW,2013-01-12 06:58:00,
2013-01-11 23:03:00,43.6,37.4,29.96,East,90,0.0,0.4,79,0.00,,,0.00,WUHU216HW,2013-01-12 07:03:00,
2013-01-11 23:08:00,43.6,37.4,29.96,East,90,0.2,0.4,79,0.00,,,0.00,WUHU216HW,2013-01-12 07:08:00,
2013-01-11 23:13:00,43.2,37.1,29.96,East,90,0.0,0.4,79,0.00,,,0.00,WUHU216HW,2013-01-12 07:13:00,
2013-01-11 23:18:00,43.2,37.1,29.96,East,90,1.1,1.1,79,0.00,,,0.00,WUHU216HW,2013-01-12 07:18:00,
2013-01-11 23:23:00,43.0,37.3,29.96,North,0,0.2,1.1,80,0.00,,,0.00,WUHU216HW,2013-01-12 07:23:00,
2013-01-11 23:28:00,42.8,37.1,29.96,North,0,0.0,1.1,80,0.00,,,0.00,WUHU216HW,2013-01-12 07:28:00,
2013-01-11 23:33:00,42.8,37.1,29.96,NNE,23,0.2,0.7,80,0.00,,,0.00,WUHU216HW,2013-01-12 07:33:00,
2013-01-11 23:38:00,43.0,37.3,29.96,NNE,23,0.2,0.7,80,0.00,,,0.00,WUHU216HW,2013-01-12 07:38:00,
2013-01-11 23:43:00,43.2,37.7,29.95,WNW,293,0.4,1.1,81,0.00,,,0.00,WUHU216HW,2013-01-12 07:43:00,
2013-01-11 23:48:00,43.4,37.9,29.95,WSW,248,1.3,3.4,81,0.00,,,0.00,WUHU216HW,2013-01-12 07:48:00,
2013-01-11 23:53:00,43.4,37.9,29.95,WSW,248,0.7,3.4,81,0.00,,,0.00,WUHU216HW,2013-01-12 07:53:00,
2013-01-11 23:58:00,43.2,37.4,29.95,SSE,158,0.0,1.3,80,0.00,,,0.00,WUHU216HW,2013-01-12 07:58:00,